createdAt,value
2023-01-07T00:02:57.665Z,98554.14
2023-01-07T00:06:01.046Z,98556.95
2023-01-07T00:09:05.167Z,98554.11
2023-01-07T00:12:07.014Z,98551.75
2023-01-07T00:15:09.243Z,98555.32
2023-01-07T00:18:11.041Z,98554.44
2023-01-07T00:21:15.525Z,98559.20
2023-01-07T00:24:18.467Z,98557.05
2023-01-07T00:27:20.547Z,98556.48
2023-01-07T00:30:22.412Z,98560.61
2023-01-07T00:33:27.603Z,98560.44
2023-01-07T00:36:32.430Z,98563.02
2023-01-07T00:39:34.307Z,98563.60
2023-01-07T00:42:56.204Z,98566.02
2023-01-07T00:45:58.136Z,98566.15
2023-01-07T00:49:01.355Z,98565.73
2023-01-07T00:52:03.345Z,98571.03
2023-01-07T00:55:05.539Z,98573.29
2023-01-07T00:58:09.687Z,98569.33
2023-01-07T01:01:12.103Z,98572.66
2023-01-07T01:04:14.547Z,98575.70
2023-01-07T01:07:16.399Z,98576.41
2023-01-07T01:10:19.793Z,98582.38
2023-01-07T01:13:21.986Z,98589.56
2023-01-07T01:16:23.933Z,98585.94
2023-01-07T01:19:25.887Z,98586.58
2023-01-07T01:22:27.906Z,98585.11
2023-01-07T01:25:29.750Z,98584.91
2023-01-07T01:28:32.971Z,98593.20
2023-01-07T01:31:34.947Z,98592.91
2023-01-07T01:34:37.046Z,98588.46
2023-01-07T01:37:38.939Z,98587.00
2023-01-07T01:40:41.474Z,98585.17
2023-01-07T01:43:44.860Z,98597.66
2023-01-07T01:46:47.218Z,98595.89
2023-01-07T01:50:12.380Z,98588.99
2023-01-07T01:53:21.325Z,98591.27
2023-01-07T01:56:31.378Z,98593.09
2023-01-07T01:59:38.648Z,98592.35
2023-01-07T02:02:56.422Z,98593.44
2023-01-07T02:05:59.143Z,98596.10
2023-01-07T02:09:01.287Z,98591.17
2023-01-07T02:12:27.144Z,98587.55
2023-01-07T02:15:45.826Z,98587.88
2023-01-07T02:18:47.581Z,98583.02
2023-01-07T02:22:27.533Z,98592.05
2023-01-07T02:26:00.751Z,98593.44
2023-01-07T02:29:05.348Z,98587.89
2023-01-07T02:32:13.045Z,98593.73
2023-01-07T02:35:36.071Z,98588.07
2023-01-07T02:38:59.070Z,98590.23
2023-01-07T02:42:36.283Z,98576.71
2023-01-07T02:45:53.703Z,98576.41
2023-01-07T02:49:09.121Z,98579.05
2023-01-07T02:52:37.356Z,98578.05
2023-01-07T02:56:06.990Z,98576.95
2023-01-07T02:59:39.730Z,98571.99
2023-01-07T03:02:58.747Z,98578.74
2023-01-07T03:06:15.643Z,98571.09
2023-01-07T03:09:40.225Z,98572.27
2023-01-07T03:12:54.527Z,98573.70
2023-01-07T03:16:09.667Z,98575.67
2023-01-07T03:19:17.811Z,98575.01
2023-01-07T03:22:23.608Z,98580.00
2023-01-07T03:25:30.144Z,98583.84
2023-01-07T03:28:39.964Z,98580.50
2023-01-07T03:32:03.478Z,98574.11
2023-01-07T03:35:06.112Z,98571.12
2023-01-07T03:38:09.255Z,98572.36
2023-01-07T03:41:31.342Z,98576.09
2023-01-07T03:44:33.285Z,98579.81
2023-01-07T03:47:37.817Z,98579.17
2023-01-07T03:50:39.765Z,98584.16
2023-01-07T03:53:41.821Z,98584.52
2023-01-07T03:56:43.967Z,98583.34
2023-01-07T03:59:45.802Z,98591.91
2023-01-07T04:02:47.671Z,98600.55
2023-01-07T04:05:55.992Z,98595.85
2023-01-07T04:08:58.617Z,98600.36
2023-01-07T04:12:01.083Z,98596.84
2023-01-07T04:15:04.408Z,98592.95
2023-01-07T04:18:06.840Z,98587.48
2023-01-07T04:21:09.202Z,98587.70
2023-01-07T04:24:11.253Z,98587.51
2023-01-07T04:27:13.136Z,98585.16
2023-01-07T04:30:15.356Z,98585.89
2023-01-07T04:33:17.909Z,98588.16
2023-01-07T04:36:20.463Z,98589.55
2023-01-07T04:39:22.834Z,98587.55
2023-01-07T04:42:24.978Z,98591.98
2023-01-07T04:45:27.113Z,98592.61
2023-01-07T04:48:29.611Z,98590.89
2023-01-07T04:51:31.949Z,98592.31
2023-01-07T04:54:34.296Z,98597.06
2023-01-07T04:57:36.341Z,98600.20
2023-01-07T05:00:38.263Z,98606.97
2023-01-07T05:03:40.254Z,98616.56
2023-01-07T05:06:42.820Z,98611.41
2023-01-07T05:09:44.941Z,98617.98
2023-01-07T05:12:47.296Z,98616.35
2023-01-07T05:15:49.537Z,98613.71
2023-01-07T05:18:51.476Z,98620.27
2023-01-07T05:21:53.657Z,98619.65
2023-01-07T05:24:55.954Z,98619.19
2023-01-07T05:27:59.369Z,98619.91
2023-01-07T05:31:01.739Z,98620.60
2023-01-07T05:34:05.335Z,98627.33
2023-01-07T05:37:07.788Z,98624.54
2023-01-07T05:40:10.869Z,98620.91
2023-01-07T05:43:12.904Z,98619.06
2023-01-07T05:46:14.956Z,98618.79
2023-01-07T05:49:17.165Z,98619.49
2023-01-07T05:52:18.957Z,98621.55
2023-01-07T05:55:20.922Z,98619.33
2023-01-07T05:58:23.053Z,98619.65
2023-01-07T06:01:24.929Z,98622.11
2023-01-07T06:04:27.169Z,98619.92
2023-01-07T06:07:29.063Z,98619.88
2023-01-07T06:10:31.181Z,98621.25
2023-01-07T06:13:33.504Z,98620.36
2023-01-07T06:16:35.217Z,98617.49
2023-01-07T06:19:37.285Z,98616.27
2023-01-07T06:22:39.084Z,98611.14
2023-01-07T06:25:40.889Z,98608.43
2023-01-07T06:28:42.843Z,98609.70
2023-01-07T06:31:44.629Z,98623.82
2023-01-07T06:34:46.529Z,98624.34
2023-01-07T06:37:48.461Z,98622.50
2023-01-07T06:40:50.285Z,98619.21
2023-01-07T06:43:52.110Z,98621.94
2023-01-07T06:46:54.030Z,98621.97
2023-01-07T06:49:55.903Z,98622.90
2023-01-07T06:52:57.820Z,98626.40
2023-01-07T06:55:59.622Z,98624.08
2023-01-07T06:59:01.439Z,98631.28
2023-01-07T07:02:03.455Z,98635.66
2023-01-07T07:05:05.685Z,98636.59
2023-01-07T07:08:07.613Z,98636.91
2023-01-07T07:11:09.428Z,98635.39
2023-01-07T07:14:11.314Z,98637.91
2023-01-07T07:17:13.193Z,98639.80
2023-01-07T07:20:15.227Z,98642.61
2023-01-07T07:23:17.160Z,98643.46
2023-01-07T07:26:19.066Z,98645.39
2023-01-07T07:29:21.900Z,98645.96
2023-01-07T07:32:27.775Z,98641.77
2023-01-07T07:35:30.311Z,98635.50
2023-01-07T07:38:32.278Z,98630.76
2023-01-07T07:41:34.180Z,98631.42
2023-01-07T07:44:36.338Z,98631.58
2023-01-07T07:47:38.193Z,98632.83
2023-01-07T07:50:41.046Z,98633.70
2023-01-07T07:53:43.341Z,98634.80
2023-01-07T07:56:45.315Z,98635.10
2023-01-07T07:59:49.494Z,98636.83
2023-01-07T08:02:51.493Z,98634.36
2023-01-07T08:05:53.787Z,98632.67
2023-01-07T08:08:55.612Z,98628.50
2023-01-07T08:11:57.458Z,98628.60
2023-01-07T08:14:59.278Z,98627.80
2023-01-07T08:18:04.277Z,98622.73
2023-01-07T08:21:06.182Z,98618.21
2023-01-07T08:24:08.194Z,98620.91
2023-01-07T08:27:10.049Z,98617.63
2023-01-07T08:30:12.030Z,98616.51
2023-01-07T08:33:13.998Z,98618.81
2023-01-07T08:36:22.502Z,98618.59
2023-01-07T08:39:25.106Z,98619.66
2023-01-07T08:42:27.351Z,98619.52
2023-01-07T08:45:29.367Z,98624.38
2023-01-07T08:48:31.201Z,98621.79
2023-01-07T08:51:33.045Z,98623.77
2023-01-07T08:54:34.925Z,98625.16
2023-01-07T08:57:36.843Z,98626.98
2023-01-07T09:00:39.389Z,98629.14
2023-01-07T09:03:41.669Z,98623.38
2023-01-07T09:06:43.891Z,98626.59
2023-01-07T09:09:45.827Z,98631.00
2023-01-07T09:12:47.783Z,98634.87
2023-01-07T09:15:49.731Z,98633.09
2023-01-07T09:18:51.544Z,98628.00
2023-01-07T09:21:53.412Z,98625.45
2023-01-07T09:24:55.306Z,98620.89
2023-01-07T09:27:57.340Z,98626.08
2023-01-07T09:31:00.211Z,98629.52
2023-01-07T09:34:02.047Z,98631.91
2023-01-07T09:37:04.306Z,98631.55
2023-01-07T09:40:07.826Z,98624.69
2023-01-07T09:43:18.107Z,98617.08
2023-01-07T09:46:20.055Z,98614.19
2023-01-07T09:49:28.819Z,98610.04
2023-01-07T09:52:51.122Z,98612.56
2023-01-07T09:56:11.199Z,98602.92
2023-01-07T09:59:14.908Z,98605.38
2023-01-07T10:02:27.143Z,98608.16
2023-01-07T10:05:38.768Z,98608.88
2023-01-07T10:08:53.740Z,98607.57
2023-01-07T10:12:10.740Z,98607.02
2023-01-07T10:15:19.433Z,98607.20
2023-01-07T10:18:45.853Z,98610.06
2023-01-07T10:22:18.020Z,98605.60
2023-01-07T10:25:24.328Z,98602.67
2023-01-07T10:28:40.242Z,98601.52
2023-01-07T10:31:44.045Z,98600.21
2023-01-07T10:34:55.293Z,98596.66
2023-01-07T10:38:03.225Z,98595.49
2023-01-07T10:41:15.601Z,98594.92
2023-01-07T10:44:56.522Z,98589.11
2023-01-07T10:48:20.654Z,98586.72
2023-01-07T10:52:28.049Z,98583.52
2023-01-07T10:55:36.317Z,98575.46
2023-01-07T10:58:43.467Z,98576.61
2023-01-07T11:01:50.526Z,98575.21
2023-01-07T11:05:04.660Z,98571.36
2023-01-07T11:08:23.149Z,98565.34
2023-01-07T11:11:26.385Z,98566.23
2023-01-07T11:14:35.182Z,98569.25
2023-01-07T11:17:45.350Z,98565.67
2023-01-07T11:21:06.451Z,98560.77
2023-01-07T11:24:27.673Z,98550.98
2023-01-07T11:27:37.291Z,98542.54
2023-01-07T11:34:47.227Z,98530.69
2023-01-07T11:37:50.890Z,98521.70
2023-01-07T11:41:38.257Z,98514.14
2023-01-07T11:46:27.038Z,98512.19
2023-01-07T11:53:07.160Z,98504.09
2023-01-07T11:56:27.604Z,98501.12
2023-01-07T11:59:31.130Z,98496.67
2023-01-07T12:02:34.826Z,98495.02
2023-01-07T12:05:41.027Z,98486.79
2023-01-07T12:09:18.977Z,98492.95
2023-01-07T12:12:42.467Z,98487.41
2023-01-07T12:16:04.451Z,98488.61
2023-01-07T12:24:51.372Z,98484.48
2023-01-07T12:28:27.339Z,98476.99
2023-01-07T12:31:46.895Z,98474.25
2023-01-07T12:35:14.325Z,98474.55
2023-01-07T12:38:52.122Z,98471.81
2023-01-07T12:42:05.146Z,98472.98
2023-01-07T12:45:19.651Z,98472.91
2023-01-07T12:48:33.065Z,98469.21
2023-01-07T12:51:48.856Z,98464.50
2023-01-07T12:55:04.303Z,98465.36
2023-01-07T12:58:10.405Z,98467.63
2023-01-07T13:01:36.968Z,98465.49
2023-01-07T13:05:10.035Z,98461.14
2023-01-07T13:08:35.205Z,98460.31
2023-01-07T13:12:40.653Z,98457.70
2023-01-07T13:15:39.927Z,98461.19
2023-01-07T13:18:43.230Z,98458.65
2023-01-07T13:21:49.796Z,98452.90
2023-01-07T13:25:26.343Z,98455.54
2023-01-07T13:28:57.526Z,98456.63
2023-01-07T13:32:06.753Z,98453.39
2023-01-07T13:35:36.751Z,98453.55
2023-01-07T13:38:39.848Z,98454.48
2023-01-07T13:42:08.028Z,98452.09
2023-01-07T13:45:14.369Z,98446.09
2023-01-07T13:48:23.400Z,98434.94
2023-01-07T13:51:31.266Z,98435.94
2023-01-07T13:54:50.586Z,98433.19
2023-01-07T13:57:53.983Z,98433.01
2023-01-07T14:01:04.945Z,98428.43
2023-01-07T14:04:08.399Z,98425.48
2023-01-07T14:07:11.821Z,98424.18
2023-01-07T14:10:36.157Z,98427.91
2023-01-07T14:13:39.359Z,98424.75
2023-01-07T14:16:54.867Z,98428.19
2023-01-07T14:20:16.959Z,98430.19
2023-01-07T14:23:43.076Z,98433.70
2023-01-07T14:27:03.563Z,98436.80
2023-01-07T14:30:34.601Z,98439.52
2023-01-07T14:34:22.376Z,98436.81
2023-01-07T14:37:39.219Z,98429.02
2023-01-07T14:41:09.549Z,98428.66
2023-01-07T14:44:31.565Z,98426.59
2023-01-07T14:48:18.045Z,98419.51
2023-01-07T14:52:05.724Z,98411.70
2023-01-07T14:55:37.889Z,98409.08
2023-01-07T14:59:10.205Z,98403.84
2023-01-07T15:03:11.385Z,98406.37
2023-01-07T15:06:25.303Z,98408.02
2023-01-07T15:10:02.591Z,98400.30
2023-01-07T15:13:26.367Z,98399.21
2023-01-07T15:16:34.565Z,98403.04
2023-01-07T15:19:39.934Z,98405.58
2023-01-07T15:22:52.571Z,98403.45
2023-01-07T15:26:11.127Z,98398.36
2023-01-07T15:29:26.482Z,98405.41
2023-01-07T15:32:57.371Z,98403.30
2023-01-07T15:36:04.384Z,98402.84
2023-01-07T15:39:22.216Z,98406.69
2023-01-07T15:42:27.520Z,98405.89
2023-01-07T15:45:30.818Z,98403.88
2023-01-07T15:48:34.316Z,98402.77
2023-01-07T15:51:43.889Z,98399.70
2023-01-07T15:54:47.199Z,98397.44
2023-01-07T15:57:53.232Z,98397.61
2023-01-07T16:01:00.230Z,98397.35
2023-01-07T16:04:05.741Z,98398.11
2023-01-07T16:07:22.414Z,98394.66
2023-01-07T16:10:34.666Z,98395.20
2023-01-07T16:13:38.122Z,98398.71
2023-01-07T16:16:41.543Z,98394.39
2023-01-07T16:19:44.946Z,98390.88
2023-01-07T16:22:48.879Z,98394.33
2023-01-07T16:26:02.903Z,98395.97
2023-01-07T16:29:11.438Z,98394.81
2023-01-07T16:32:16.236Z,98392.27
2023-01-07T16:35:39.214Z,98389.02
2023-01-07T16:38:44.904Z,98386.95
2023-01-07T16:41:48.487Z,98391.45
2023-01-07T16:53:49.147Z,98383.64
2023-01-07T16:57:11.935Z,98385.80
2023-01-07T17:00:20.342Z,98385.11
2023-01-07T17:03:25.349Z,98380.48
2023-01-07T17:06:39.762Z,98379.15
2023-01-07T17:09:43.021Z,98376.49
2023-01-07T17:13:15.275Z,98367.46
2023-01-07T17:16:32.794Z,98367.06
2023-01-07T17:19:41.470Z,98366.00
2023-01-07T17:22:45.829Z,98367.86
2023-01-07T17:25:55.391Z,98363.96
2023-01-07T17:29:12.948Z,98364.26
2023-01-07T17:32:16.751Z,98367.84
2023-01-07T17:35:22.326Z,98360.86
2023-01-07T17:38:28.071Z,98358.86
2023-01-07T17:41:54.604Z,98356.34
2023-01-07T17:44:57.846Z,98360.52
2023-01-07T17:48:01.504Z,98355.23
2023-01-07T17:51:05.769Z,98356.40
2023-01-07T17:54:17.971Z,98355.02
2023-01-07T17:57:21.218Z,98357.27
2023-01-07T18:00:27.320Z,98353.59
2023-01-07T18:03:30.583Z,98354.63
2023-01-07T18:06:35.804Z,98357.05
2023-01-07T18:09:42.154Z,98366.14
2023-01-07T18:12:46.346Z,98367.90
2023-01-07T18:15:49.555Z,98362.50
2023-01-07T18:18:53.216Z,98363.54
2023-01-07T18:21:56.505Z,98365.73
2023-01-07T18:24:59.678Z,98366.52
2023-01-07T18:28:04.340Z,98363.98
2023-01-07T18:31:08.093Z,98365.52
2023-01-07T18:34:13.240Z,98364.66
2023-01-07T18:37:17.820Z,98363.02
2023-01-07T18:40:21.279Z,98360.68
2023-01-07T18:43:24.735Z,98360.16
2023-01-07T18:46:28.127Z,98359.91
2023-01-07T18:49:31.346Z,98356.20
2023-01-07T18:52:34.652Z,98350.41
2023-01-07T18:55:40.094Z,98351.27
2023-01-07T18:58:44.356Z,98349.55
2023-01-07T19:01:47.963Z,98351.77
2023-01-07T19:04:51.299Z,98353.81
2023-01-07T19:07:55.539Z,98349.88
2023-01-07T19:10:58.846Z,98348.91
2023-01-07T19:14:02.090Z,98344.73
2023-01-07T19:17:05.834Z,98342.75
2023-01-07T19:20:10.151Z,98342.29
2023-01-07T19:23:17.593Z,98343.09
2023-01-07T19:26:21.605Z,98342.78
2023-01-07T19:29:24.868Z,98344.77
2023-01-07T19:32:30.500Z,98342.13
2023-01-07T19:35:33.816Z,98343.13
2023-01-07T19:38:41.780Z,98340.94
2023-01-07T19:41:45.415Z,98342.12
2023-01-07T19:44:48.725Z,98337.22
2023-01-07T19:47:51.970Z,98338.94
2023-01-07T19:50:57.619Z,98333.57
2023-01-07T19:54:01.353Z,98330.45
2023-01-07T19:57:04.783Z,98330.82
2023-01-07T20:00:08.694Z,98330.39
2023-01-07T20:03:11.937Z,98327.30
2023-01-07T20:06:17.755Z,98328.14
2023-01-07T20:09:22.939Z,98326.09
2023-01-07T20:12:28.265Z,98321.77
2023-01-07T20:15:32.013Z,98323.13
2023-01-07T20:18:42.364Z,98314.83
2023-01-07T20:21:46.797Z,98314.24
2023-01-07T20:24:50.050Z,98308.51
2023-01-07T20:27:53.267Z,98308.45
2023-01-07T20:30:56.517Z,98306.36
2023-01-07T20:34:00.780Z,98296.77
2023-01-07T20:37:04.607Z,98298.92
2023-01-07T20:40:08.765Z,98295.92
2023-01-07T20:43:12.859Z,98289.48
2023-01-07T20:46:16.244Z,98287.48
2023-01-07T20:49:19.476Z,98286.02
2023-01-07T20:52:22.685Z,98281.96
2023-01-07T20:55:25.953Z,98282.49
2023-01-07T20:58:34.663Z,98281.48
2023-01-07T21:01:38.261Z,98280.44
2023-01-07T21:04:41.603Z,98279.67
2023-01-07T21:07:44.799Z,98274.91
2023-01-07T21:10:48.035Z,98268.17
2023-01-07T21:13:52.234Z,98261.27
2023-01-07T21:16:55.451Z,98263.05
2023-01-07T21:19:58.662Z,98265.55
2023-01-07T21:23:02.014Z,98265.98
2023-01-07T21:26:06.948Z,98266.73
2023-01-07T21:29:10.181Z,98264.61
2023-01-07T21:32:13.589Z,98264.13
2023-01-07T21:35:16.811Z,98257.33
2023-01-07T21:38:20.113Z,98257.09
2023-01-07T21:41:29.032Z,98252.40
2023-01-07T21:44:34.160Z,98254.48
2023-01-07T21:47:37.435Z,98255.77
2023-01-07T21:50:40.675Z,98255.09
2023-01-07T21:53:44.109Z,98247.76
2023-01-07T21:56:47.313Z,98246.25
2023-01-07T21:59:50.666Z,98240.91
2023-01-07T22:02:53.857Z,98241.65
2023-01-07T22:06:05.319Z,98240.59
2023-01-07T22:09:13.014Z,98237.92
2023-01-07T22:12:16.382Z,98232.21
2023-01-07T22:15:19.668Z,98228.27
2023-01-07T22:18:22.949Z,98228.77
2023-01-07T22:21:26.336Z,98224.76
2023-01-07T22:24:29.863Z,98221.79
2023-01-07T22:27:33.122Z,98215.41
2023-01-07T22:30:39.719Z,98218.48
2023-01-07T22:33:42.932Z,98214.67
2023-01-07T22:37:11.172Z,98209.28
2023-01-07T22:40:14.581Z,98200.58
2023-01-07T22:43:21.032Z,98193.85
2023-01-07T22:46:29.202Z,98187.92
2023-01-07T22:49:33.092Z,98188.28
2023-01-07T22:52:38.057Z,98177.44
2023-01-07T22:55:41.205Z,98178.45
2023-01-07T22:58:44.640Z,98173.59
2023-01-07T23:01:47.860Z,98171.25
2023-01-07T23:04:51.017Z,98171.48
2023-01-07T23:07:54.250Z,98169.74
2023-01-07T23:10:57.497Z,98167.27
2023-01-07T23:14:00.731Z,98165.46
2023-01-07T23:17:04.160Z,98163.25
2023-01-07T23:20:07.731Z,98160.06
2023-01-07T23:23:12.485Z,98156.93
2023-01-07T23:26:16.255Z,98158.48
2023-01-07T23:29:20.111Z,98158.42
2023-01-07T23:32:23.384Z,98159.20
2023-01-07T23:35:26.689Z,98149.86
2023-01-07T23:38:29.952Z,98145.80
2023-01-07T23:41:33.323Z,98135.81
2023-01-07T23:44:36.536Z,98140.73
2023-01-07T23:47:39.755Z,98141.82
2023-01-07T23:50:42.985Z,98138.39
2023-01-07T23:53:46.928Z,98131.23
2023-01-07T23:56:51.013Z,98130.00
2023-01-07T23:59:54.268Z,98128.01
